Time;durP1;ratioP1;P1;durP2;ratioP2;P2;SDS_P1;SDS_P2;PMS_P1;PMS_P2;Temp;Humidity;BMP_temperature;BMP_pressure;BME280_temperature;BME280_humidity;BME280_pressure;Samples;Min_cycle;Max_cycle;Signal;HPM_P1;HPM_P2
2022/06/19 00:15:54;;;;;;;8.77;4.95;;;;;;;19.11;70.60;101330.50;6328432;22;20068;-86
2022/06/19 00:18:20;;;;;;;6.72;5.50;;;;;;;19.13;70.80;101320.97;6329192;22;20003;-87
2022/06/19 00:20:46;;;;;;;7.30;5.35;;;;;;;19.08;70.97;101317.50;6326214;22;20066;-88
2022/06/19 00:23:12;;;;;;;6.80;5.25;;;;;;;19.02;71.15;101320.25;6329934;22;19998;-86
2022/06/19 00:25:38;;;;;;;9.30;5.47;;;;;;;19.02;71.56;101309.41;6327525;22;20314;-87
2022/06/19 00:28:05;;;;;;;7.22;5.50;;;;;;;19.08;71.69;101298.50;6331225;22;20006;-87
2022/06/19 00:30:31;;;;;;;9.82;5.90;;;;;;;19.10;71.61;101310.69;6330365;22;20151;-87
2022/06/19 00:32:58;;;;;;;7.00;5.40;;;;;;;19.14;71.60;101305.47;6330653;22;20002;-86
2022/06/19 00:35:26;;;;;;;7.32;5.50;;;;;;;19.15;71.42;101294.31;6331809;22;20006;-89
2022/06/19 00:37:53;;;;;;;7.25;5.03;;;;;;;19.18;72.04;101284.75;6330782;22;19995;-87
2022/06/19 00:40:19;;;;;;;15.35;6.47;;;;;;;19.12;71.81;101286.75;6331270;22;20025;-86
2022/06/19 00:42:45;;;;;;;20.80;6.68;;;;;;;19.05;71.74;101307.22;6328979;22;20009;-87
2022/06/19 00:45:36;;;;;;;10.82;6.03;;;;;;;18.94;72.21;101303.81;6329791;22;20430;-87
2022/06/19 00:48:15;;;;;;;11.68;6.20;;;;;;;18.98;71.92;101297.50;6332018;22;20010;-87
2022/06/19 00:50:45;;;;;;;8.32;5.43;;;;;;;19.01;71.72;101301.53;6331109;22;20250;-87
2022/06/19 00:53:16;;;;;;;8.57;6.05;;;;;;;19.01;71.76;101302.34;6336178;22;20030;-87
2022/06/19 00:55:45;;;;;;;18.33;6.63;;;;;;;18.95;71.93;101300.81;6332818;22;20003;-86
2022/06/19 00:58:24;;;;;;;7.78;5.65;;;;;;;18.83;71.91;101294.16;6333025;22;20066;-87
2022/06/19 01:00:57;;;;;;;9.63;5.93;;;;;;;18.75;72.29;101276.63;6337977;22;20010;-88
2022/06/19 01:03:36;;;;;;;8.35;5.72;;;;;;;18.70;72.53;101274.78;6341383;22;20058;-87
2022/06/19 01:06:02;;;;;;;9.25;5.80;;;;;;;18.70;72.76;101277.50;6339798;22;20011;-87
2022/06/19 01:08:27;;;;;;;8.13;6.05;;;;;;;18.66;72.92;101272.91;6340487;22;19998;-87
2022/06/19 01:10:54;;;;;;;11.30;5.93;;;;;;;18.67;73.18;101263.69;6343512;22;20013;-87
2022/06/19 01:13:25;;;;;;;16.00;6.63;;;;;;;18.63;73.50;101263.47;6337660;22;20018;-87
2022/06/19 01:15:52;;;;;;;13.35;6.55;;;;;;;18.57;73.43;101263.78;6332513;22;20095;-87
2022/06/19 01:18:19;;;;;;;7.63;5.45;;;;;;;18.55;73.39;101265.97;6332889;22;20041;-87
2022/06/19 01:20:45;;;;;;;10.07;5.28;;;;;;;18.54;73.32;101259.75;6331794;22;20441;-87
2022/06/19 01:23:30;;;;;;;13.00;6.30;;;;;;;18.45;73.58;101260.66;6332814;22;20009;-87
2022/06/19 01:25:56;;;;;;;9.63;5.80;;;;;;;18.45;73.60;101255.22;6331634;22;19995;-87
2022/06/19 01:28:46;;;;;;;10.05;5.80;;;;;;;18.38;73.29;101253.69;6332915;22;20016;-87
2022/06/19 01:31:16;;;;;;;8.00;6.20;;;;;;;18.33;73.39;101248.31;6333901;22;19998;-88
2022/06/19 01:33:48;;;;;;;7.85;6.30;;;;;;;18.25;73.79;101239.97;6332373;22;20002;-86
2022/06/19 01:36:16;;;;;;;9.10;5.40;;;;;;;18.22;74.14;101238.66;6330472;22;19999;-87
2022/06/19 01:38:48;;;;;;;9.50;5.60;;;;;;;18.21;74.15;101250.59;6328455;22;20007;-87
2022/06/19 01:41:19;;;;;;;6.97;4.78;;;;;;;18.19;74.14;101250.09;6328814;22;20014;-87
2022/06/19 01:43:46;;;;;;;8.73;4.78;;;;;;;18.18;74.01;101247.66;6327324;22;20021;-87
2022/06/19 01:46:15;;;;;;;7.30;5.20;;;;;;;18.14;73.92;101246.63;6330889;22;19999;-87
2022/06/19 01:48:41;;;;;;;9.32;5.32;;;;;;;18.14;74.07;101242.00;6330619;22;20006;-87
2022/06/19 01:51:07;;;;;;;7.47;5.70;;;;;;;18.15;74.22;101224.63;6329158;22;20064;-87
2022/06/19 01:53:58;;;;;;;11.48;6.32;;;;;;;18.05;74.60;101214.69;6327651;22;20049;-87
2022/06/19 01:56:24;;;;;;;10.27;6.10;;;;;;;18.10;74.48;101216.53;6329692;22;20018;-86
2022/06/19 01:58:54;;;;;;;11.02;5.95;;;;;;;18.09;74.78;101214.91;6332720;22;20224;-87
2022/06/19 02:01:19;;;;;;;8.88;6.53;;;;;;;18.08;74.46;101210.59;6331488;22;20374;-87
2022/06/19 02:03:52;;;;;;;8.20;6.95;;;;;;;18.06;74.60;101205.47;6332964;22;20002;-87
2022/06/19 02:06:23;;;;;;;9.25;6.65;;;;;;;18.00;74.78;101192.25;6332499;22;19998;-86
2022/06/19 02:08:49;;;;;;;9.73;6.28;;;;;;;17.96;74.92;101193.94;6331409;22;20356;-87
2022/06/19 02:11:16;;;;;;;10.93;5.90;;;;;;;17.95;75.07;101193.09;6331188;22;20006;-87
2022/06/19 02:13:43;;;;;;;10.25;6.72;;;;;;;17.93;75.09;101197.19;6332590;22;20437;-87
2022/06/19 02:16:13;;;;;;;7.63;5.22;;;;;;;17.82;75.04;101193.78;6331497;22;19999;-87
2022/06/19 02:18:42;;;;;;;7.72;5.60;;;;;;;17.76;75.29;101190.28;6331406;22;20430;-88
2022/06/19 02:21:14;;;;;;;7.32;6.47;;;;;;;17.74;75.55;101186.25;6332339;22;20009;-87
2022/06/19 02:23:39;;;;;;;7.65;5.82;;;;;;;17.74;75.35;101192.47;6331300;22;20003;-87
2022/06/19 02:26:12;;;;;;;5.97;5.38;;;;;;;17.76;75.53;101190.28;6327511;22;20821;-87
2022/06/19 02:28:42;;;;;;;7.35;5.70;;;;;;;17.80;75.22;101190.56;6330657;22;20461;-87
2022/06/19 02:31:08;;;;;;;8.55;5.85;;;;;;;17.83;75.35;101189.97;6330149;22;20503;-87
2022/06/19 02:33:40;;;;;;;8.70;5.30;;;;;;;17.83;75.40;101195.41;6332890;22;19998;-87
2022/06/19 02:36:34;;;;;;;7.30;5.90;;;;;;;17.77;75.75;101191.94;6333165;22;20445;-87
2022/06/19 02:39:28;;;;;;;7.30;5.68;;;;;;;17.82;75.56;101185.66;6334741;22;20326;-87
2022/06/19 02:42:02;;;;;;;8.45;4.90;;;;;;;17.85;75.52;101186.97;6290673;22;20184;-87
2022/06/19 02:44:40;;;;;;;6.88;5.38;;;;;;;17.88;75.52;101189.09;6342156;22;20007;-87
2022/06/19 02:47:08;;;;;;;9.15;5.80;;;;;;;17.94;75.25;101175.22;6341424;22;20314;-87
2022/06/19 02:49:34;;;;;;;8.88;6.60;;;;;;;17.92;75.50;101171.16;6342934;22;20028;-87
2022/06/19 02:52:01;;;;;;;11.27;6.07;;;;;;;17.88;75.53;101170.94;6341232;22;20007;-87
2022/06/19 02:54:27;;;;;;;8.50;6.20;;;;;;;17.88;75.68;101157.38;6341368;22;20005;-87
2022/06/19 02:56:53;;;;;;;9.10;6.15;;;;;;;17.85;75.83;101149.03;6341858;22;20455;-89
2022/06/19 02:59:19;;;;;;;11.32;6.10;;;;;;;17.81;76.07;101155.03;6344224;22;20000;-90
2022/06/19 03:01:44;;;;;;;8.45;6.00;;;;;;;17.77;76.08;101150.44;6344306;22;20210;-89
2022/06/19 03:04:27;;;;;;;6.85;5.25;;;;;;;17.72;75.91;101145.09;6345092;22;20052;-89
2022/06/19 03:06:54;;;;;;;9.18;5.78;;;;;;;17.80;75.97;101137.16;6345877;22;20022;-89
2022/06/19 03:09:21;;;;;;;7.00;5.22;;;;;;;17.86;75.74;101128.97;6345623;22;19999;-91
2022/06/19 03:11:49;;;;;;;6.15;5.03;;;;;;;17.88;75.86;101119.44;6347429;22;20021;-89
2022/06/19 03:14:15;;;;;;;6.25;5.00;;;;;;;17.89;75.74;101112.13;6346856;22;20054;-88
2022/06/19 03:16:41;;;;;;;7.80;4.72;;;;;;;17.89;75.60;101101.28;6346619;22;19998;-89
2022/06/19 03:19:07;;;;;;;5.60;4.43;;;;;;;17.90;75.67;101097.47;6347244;22;20013;-91
2022/06/19 03:21:33;;;;;;;21.45;5.47;;;;;;;17.92;75.88;101084.44;6347113;22;19998;-89
2022/06/19 03:23:58;;;;;;;9.68;5.15;;;;;;;17.95;75.87;101081.94;6349245;22;20077;-89
2022/06/19 03:26:26;;;;;;;8.52;4.53;;;;;;;18.02;75.94;101077.00;6347808;22;20441;-89
2022/06/19 03:28:53;;;;;;;6.72;4.93;;;;;;;18.10;75.67;101070.09;6347579;22;20032;-91
2022/06/19 03:31:22;;;;;;;7.43;5.03;;;;;;;18.21;75.61;101071.59;6346018;22;20241;-88
2022/06/19 03:33:48;;;;;;;11.25;5.35;;;;;;;18.31;75.16;101071.47;6341581;22;19999;-90
2022/06/19 03:36:14;;;;;;;7.45;4.80;;;;;;;18.41;74.72;101063.19;6339131;22;19998;-92
2022/06/19 03:38:40;;;;;;;8.55;5.22;;;;;;;18.51;74.63;101061.44;6339402;22;20006;-90
2022/06/19 03:41:05;;;;;;;7.18;4.90;;;;;;;18.57;74.07;101052.13;6338915;22;20128;-88
2022/06/19 03:43:33;;;;;;;9.23;4.82;;;;;;;18.64;73.83;101068.84;6338794;22;20482;-91
2022/06/19 03:46:12;;;;;;;23.02;6.82;;;;;;;18.66;73.58;101064.75;6337080;22;20003;-90
2022/06/19 03:48:43;;;;;;;9.68;5.07;;;;;;;18.74;73.22;101063.28;6336964;22;20030;-89
2022/06/19 03:51:11;;;;;;;9.15;4.97;;;;;;;18.82;73.37;101065.31;6336730;22;19999;-89
2022/06/19 03:53:37;;;;;;;6.85;4.70;;;;;;;18.89;72.92;101065.78;6336536;22;20002;-89
2022/06/19 03:56:04;;;;;;;5.78;4.18;;;;;;;18.96;72.58;101057.25;6336050;22;20006;-89
2022/06/19 03:58:45;;;;;;;7.07;4.10;;;;;;;19.00;72.55;101050.09;6335761;22;19999;-89
2022/06/19 04:01:35;;;;;;;6.15;4.40;;;;;;;18.98;72.40;101042.25;6336556;22;20010;-89
2022/06/19 04:04:01;;;;;;;4.78;3.97;;;;;;;19.12;72.27;101030.63;6323748;22;20017;-90
2022/06/19 04:06:31;;;;;;;6.32;4.60;;;;;;;19.19;71.99;101010.13;6335908;22;20441;-89
2022/06/19 04:08:57;;;;;;;7.18;4.55;;;;;;;19.27;71.64;101014.88;6335647;22;19999;-89
2022/06/19 04:11:25;;;;;;;10.65;4.63;;;;;;;19.36;71.33;101009.53;6335566;22;20043;-89
2022/06/19 04:13:54;;;;;;;6.43;4.75;;;;;;;19.44;71.21;100999.91;6336281;22;20068;-92
2022/06/19 04:16:23;;;;;;;5.03;3.97;;;;;;;19.52;70.84;100986.41;6335434;22;20034;-88
2022/06/19 04:18:50;;;;;;;7.07;4.13;;;;;;;19.59;70.53;100981.44;6335322;22;20026;-90
2022/06/19 04:21:20;;;;;;;5.50;4.07;;;;;;;19.68;70.04;100981.50;6334283;22;20007;-89
2022/06/19 04:23:46;;;;;;;5.57;4.35;;;;;;;19.79;69.85;100979.41;6335244;22;20006;-90
2022/06/19 04:26:14;;;;;;;5.22;4.20;;;;;;;19.90;69.39;100978.84;6335762;22;19999;-89
2022/06/19 04:28:42;;;;;;;4.72;3.78;;;;;;;19.99;69.29;100984.41;6335431;22;19999;-90
2022/06/19 04:31:09;;;;;;;5.32;3.63;;;;;;;20.10;68.84;100974.06;6335588;22;20002;-89
2022/06/19 04:33:40;;;;;;;4.95;3.80;;;;;;;20.20;68.39;100980.09;6335752;22;20022;-88
2022/06/19 04:36:15;;;;;;;5.75;4.63;;;;;;;20.33;67.73;100964.06;6335339;22;20022;-91
2022/06/19 04:38:44;;;;;;;5.05;3.67;;;;;;;20.45;67.28;100959.69;6335397;22;20041;-89
2022/06/19 04:41:19;;;;;;;9.05;3.85;;;;;;;20.59;67.20;100958.81;6335985;22;20066;-89
2022/06/19 04:43:44;;;;;;;9.75;3.88;;;;;;;20.79;67.35;100948.22;6336993;22;20025;-89
2022/06/19 04:46:19;;;;;;;5.68;4.65;;;;;;;20.89;66.50;100949.88;6337686;22;20003;-89
2022/06/19 04:48:49;;;;;;;7.90;4.30;;;;;;;21.01;66.23;100947.41;6337676;22;20003;-89
2022/06/19 04:51:15;;;;;;;6.45;4.35;;;;;;;21.13;66.02;100953.03;6337119;22;20010;-89
2022/06/19 04:53:41;;;;;;;5.38;4.05;;;;;;;21.25;65.26;100949.78;6337472;22;20006;-89
2022/06/19 04:56:09;;;;;;;5.28;3.80;;;;;;;21.37;65.29;100952.72;6337925;22;19995;-89
2022/06/19 04:58:35;;;;;;;5.35;3.83;;;;;;;21.50;64.87;100936.53;6337312;22;20006;-89
2022/06/19 05:01:03;;;;;;;6.07;4.25;;;;;;;21.54;64.64;100932.84;6337353;22;20056;-89
2022/06/19 05:03:29;;;;;;;6.50;4.00;;;;;;;21.59;64.39;100930.00;6337158;22;20006;-90
2022/06/19 05:05:55;;;;;;;5.13;4.25;;;;;;;21.66;64.43;100937.69;6338035;22;19999;-89
2022/06/19 05:08:21;;;;;;;4.00;3.63;;;;;;;21.75;64.43;100927.63;6337181;22;20022;-89
2022/06/19 05:10:47;;;;;;;9.63;4.10;;;;;;;21.86;64.37;100922.66;6337209;22;19995;-89
2022/06/19 05:13:20;;;;;;;7.50;4.35;;;;;;;21.88;64.02;100914.94;6337003;22;19998;-90
2022/06/19 05:15:47;;;;;;;5.93;3.65;;;;;;;21.86;64.16;100918.00;6335074;22;20442;-89
2022/06/19 05:18:13;;;;;;;8.07;4.15;;;;;;;21.84;64.25;100901.16;6335378;22;20001;-90
2022/06/19 05:20:39;;;;;;;5.95;3.90;;;;;;;21.85;64.11;100900.03;6337385;22;20003;-91
2022/06/19 05:23:06;;;;;;;7.57;4.32;;;;;;;21.91;64.04;100896.03;6337257;22;20449;-89
2022/06/19 05:25:32;;;;;;;5.63;4.40;;;;;;;22.00;63.67;100887.84;6335759;22;20083;-89
2022/06/19 05:27:57;;;;;;;7.28;3.70;;;;;;;22.10;63.82;100876.66;6336533;22;20095;-89
2022/06/19 05:30:23;;;;;;;12.02;4.57;;;;;;;22.12;63.33;100868.94;6334997;22;20003;-89
2022/06/19 05:32:48;;;;;;;11.40;4.72;;;;;;;22.11;62.99;100872.00;6335321;22;20006;-89
2022/06/19 05:35:14;;;;;;;14.65;4.30;;;;;;;22.11;62.77;100858.34;6337027;22;20024;-92
2022/06/19 05:37:40;;;;;;;7.60;4.38;;;;;;;22.17;62.62;100848.84;6337309;22;20003;-89
2022/06/19 05:40:06;;;;;;;9.90;4.90;;;;;;;22.22;62.48;100841.28;6339473;22;20005;-89
2022/06/19 05:42:32;;;;;;;8.73;4.75;;;;;;;22.31;61.90;100841.28;6337134;22;19999;-89
2022/06/19 05:44:57;;;;;;;8.20;4.78;;;;;;;22.41;61.74;100829.22;6337482;22;20419;-90
2022/06/19 05:47:23;;;;;;;8.35;5.03;;;;;;;22.52;61.47;100833.22;6337053;22;19995;-89
2022/06/19 05:49:49;;;;;;;12.05;5.70;;;;;;;22.61;61.49;100832.03;6336515;22;20430;-90
2022/06/19 05:52:19;;;;;;;5.45;4.65;;;;;;;22.69;60.81;100827.69;6335175;22;20003;-92
2022/06/19 05:54:46;;;;;;;7.88;4.60;;;;;;;22.77;60.86;100823.31;6336785;22;20009;-91
2022/06/19 05:57:12;;;;;;;6.10;5.07;;;;;;;22.82;60.78;100814.97;6336912;22;20024;-90
2022/06/19 05:59:37;;;;;;;5.38;4.38;;;;;;;22.89;60.48;100807.84;6336472;22;20011;-91
2022/06/19 06:02:04;;;;;;;6.28;4.38;;;;;;;22.95;60.21;100799.47;6336900;22;20018;-91
2022/06/19 06:04:30;;;;;;;9.68;4.95;;;;;;;23.00;59.94;100794.63;6336818;22;20006;-92
2022/06/19 06:06:55;;;;;;;9.45;4.75;;;;;;;23.08;60.13;100787.50;6337109;22;20015;-90
2022/06/19 06:09:21;;;;;;;9.10;5.18;;;;;;;23.14;59.76;100786.16;6337511;22;20318;-91
2022/06/19 06:11:47;;;;;;;9.77;5.25;;;;;;;23.19;59.81;100775.06;6337143;22;20236;-91
2022/06/19 06:14:15;;;;;;;7.68;5.13;;;;;;;23.23;59.31;100784.19;6341855;22;20273;-94
2022/06/19 06:16:41;;;;;;;8.40;5.10;;;;;;;23.27;59.07;100776.91;6337065;22;20003;-90
2022/06/19 06:19:06;;;;;;;7.47;4.97;;;;;;;23.31;59.60;100766.91;6335407;22;20056;-90
2022/06/19 06:21:32;;;;;;;7.72;4.85;;;;;;;23.43;59.25;100768.94;6341263;22;19995;-93
2022/06/19 06:23:58;;;;;;;14.65;5.47;;;;;;;23.56;59.48;100767.88;6337302;22;19998;-90
2022/06/19 06:26:29;;;;;;;8.20;5.00;;;;;;;23.64;59.26;100760.72;6340064;22;20077;-92
2022/06/19 06:29:08;;;;;;;9.25;4.90;;;;;;;23.74;59.10;100763.88;6349873;22;20001;-95
2022/06/19 06:31:35;;;;;;;8.82;4.93;;;;;;;23.89;58.88;100758.91;6337636;22;20437;-92
2022/06/19 06:34:01;;;;;;;5.50;4.65;;;;;;;24.01;58.53;100747.97;6334915;22;20011;-91
2022/06/19 06:36:28;;;;;;;6.32;4.72;;;;;;;24.14;58.39;100752.34;6336913;22;20467;-90
2022/06/19 06:38:54;;;;;;;9.38;4.68;;;;;;;24.27;58.63;100737.56;6335025;22;20029;-91
2022/06/19 06:41:20;;;;;;;12.05;5.05;;;;;;;24.46;58.33;100745.25;6335285;22;20460;-90
2022/06/19 06:43:47;;;;;;;5.35;4.30;;;;;;;24.54;57.92;100738.84;6335917;22;20011;-89
2022/06/19 06:46:19;;;;;;;9.70;4.82;;;;;;;24.63;57.37;100736.00;6336151;22;20022;-90
2022/06/19 06:48:44;;;;;;;6.97;4.75;;;;;;;24.82;57.20;100729.94;6334347;22;20006;-92
2022/06/19 06:51:16;;;;;;;9.30;5.28;;;;;;;24.94;56.16;100725.22;6336622;22;20022;-89
2022/06/19 06:53:42;;;;;;;9.23;4.75;;;;;;;25.03;55.80;100724.34;6336203;22;20338;-89
2022/06/19 06:56:08;;;;;;;13.13;5.32;;;;;;;25.09;56.16;100718.25;6336021;22;19998;-89
2022/06/19 06:58:34;;;;;;;9.38;5.63;;;;;;;25.26;55.64;100717.97;6336593;22;20080;-91
2022/06/19 07:01:18;;;;;;;7.40;5.32;;;;;;;25.36;55.02;100711.22;6335741;22;20003;-90
2022/06/19 07:03:46;;;;;;;9.73;5.67;;;;;;;25.53;54.89;100705.44;6336115;22;19998;-92
2022/06/19 07:06:12;;;;;;;7.95;5.15;;;;;;;25.54;54.54;100704.28;6334719;22;20031;-91
2022/06/19 07:08:38;;;;;;;8.70;5.13;;;;;;;25.60;54.19;100705.63;6336148;22;20378;-89
2022/06/19 07:11:04;;;;;;;12.38;5.32;;;;;;;25.69;54.01;100707.44;6336467;22;20410;-89
2022/06/19 07:13:30;;;;;;;9.95;5.28;;;;;;;25.75;53.64;100695.06;6336063;22;20010;-91
2022/06/19 07:15:56;;;;;;;7.10;5.40;;;;;;;25.79;53.60;100690.47;6336650;22;20421;-92
2022/06/19 07:18:22;;;;;;;14.45;5.18;;;;;;;25.91;53.64;100679.41;6337160;22;20327;-91
2022/06/19 07:20:47;;;;;;;9.07;5.65;;;;;;;25.99;53.25;100678.44;6337031;22;20025;-92
2022/06/19 07:23:14;;;;;;;17.02;5.90;;;;;;;26.17;53.43;100663.19;6337021;22;20351;-90
2022/06/19 07:25:40;;;;;;;10.88;5.82;;;;;;;26.29;52.45;100650.53;6338029;22;20422;-90
2022/06/19 07:28:06;;;;;;;8.15;5.15;;;;;;;26.37;52.75;100655.06;6335768;22;20048;-90
2022/06/19 07:30:31;;;;;;;14.20;5.57;;;;;;;26.50;52.62;100648.31;6336072;22;19999;-90
2022/06/19 07:32:57;;;;;;;9.25;5.32;;;;;;;26.67;51.85;100666.34;6335847;22;20002;-90
2022/06/19 07:35:23;;;;;;;10.10;5.60;;;;;;;26.80;51.39;100662.31;6336341;22;19995;-92
2022/06/19 07:37:51;;;;;;;8.77;5.95;;;;;;;26.94;51.12;100672.84;6335698;22;19995;-90
2022/06/19 07:40:19;;;;;;;7.90;5.32;;;;;;;27.15;51.09;100670.56;6336236;22;19995;-91
2022/06/19 07:42:45;;;;;;;11.30;5.60;;;;;;;27.35;50.09;100674.88;6336285;22;20331;-90
2022/06/19 07:45:12;;;;;;;8.60;5.70;;;;;;;27.54;49.60;100674.06;6336040;22;20013;-90
2022/06/19 07:50:23;;;;;;;;;;;;;;;27.76;49.77;100649.72;6336232;22;20010;-93
2022/06/19 07:52:50;;;;;;;9.13;5.63;;;;;;;27.95;48.98;100639.44;6336078;22;19903;-90
2022/06/19 07:55:22;;;;;;;8.70;5.30;;;;;;;28.05;48.62;100638.03;6336143;22;19995;-92
2022/06/19 07:57:50;;;;;;;7.38;5.28;;;;;;;28.17;48.19;100634.25;6336512;22;20053;-91
2022/06/19 08:00:19;;;;;;;11.32;5.93;;;;;;;28.29;48.12;100647.88;6335831;22;19998;-93
2022/06/19 08:02:51;;;;;;;6.78;5.07;;;;;;;28.39;47.68;100663.78;6336006;22;20003;-92
2022/06/19 08:05:19;;;;;;;9.10;5.35;;;;;;;28.48;47.27;100667.06;6334033;22;20446;-91
2022/06/19 08:07:50;;;;;;;10.27;5.65;;;;;;;28.62;46.42;100665.69;6335905;22;20111;-92
2022/06/19 08:10:25;;;;;;;9.57;5.53;;;;;;;28.66;44.92;100661.00;6336152;22;20022;-91
2022/06/19 08:12:50;;;;;;;;;;;;;;;28.55;46.02;100641.56;6336160;22;20329;-92
2022/06/19 08:15:16;;;;;;;7.65;5.63;;;;;;;28.77;45.43;100646.22;6335571;22;19977;-91
2022/06/19 08:17:45;;;;;;;8.73;5.40;;;;;;;28.88;45.34;100649.91;6335568;22;20070;-91
2022/06/19 08:20:12;;;;;;;7.85;5.30;;;;;;;29.07;44.40;100651.72;6335866;22;19999;-91
2022/06/19 08:22:41;;;;;;;11.07;5.57;;;;;;;29.13;44.68;100660.47;6336016;22;20002;-92
2022/06/19 08:25:10;;;;;;;10.57;5.80;;;;;;;29.19;44.36;100656.19;6334518;22;20342;-92
2022/06/19 08:27:40;;;;;;;13.05;6.32;;;;;;;29.30;45.25;100656.34;6335497;22;20010;-92
2022/06/19 08:30:08;;;;;;;11.60;5.60;;;;;;;29.39;44.39;100654.84;6336187;22;20002;-91
2022/06/19 08:32:34;;;;;;;11.18;6.75;;;;;;;29.41;44.05;100643.44;6335796;22;20007;-92
2022/06/19 08:35:00;;;;;;;9.38;5.45;;;;;;;29.38;43.81;100642.22;6335392;22;20015;-91
2022/06/19 08:37:25;;;;;;;10.98;7.28;;;;;;;29.46;43.71;100648.66;6335168;22;20009;-91
2022/06/19 08:39:52;;;;;;;14.75;5.68;;;;;;;29.58;43.67;100651.13;6335606;22;20007;-90
2022/06/19 08:42:39;;;;;;;8.95;6.43;;;;;;;29.69;42.89;100652.03;6336200;22;20009;-92
2022/06/19 08:45:13;;;;;;;9.82;5.63;;;;;;;29.77;43.04;100631.59;6336201;22;20077;-92
2022/06/19 08:48:09;;;;;;;10.27;5.43;;;;;;;29.87;42.85;100613.53;6338333;22;20465;-92
2022/06/19 08:50:37;;;;;;;12.07;5.93;;;;;;;29.98;42.59;100613.59;6336635;22;19994;-91
2022/06/19 08:53:21;;;;;;;8.98;5.78;;;;;;;29.94;42.49;100598.97;6336047;22;20056;-90
2022/06/19 08:55:49;;;;;;;9.73;5.80;;;;;;;29.89;42.81;100596.59;6336880;22;20315;-92
2022/06/19 08:58:53;;;;;;;9.57;5.80;;;;;;;29.79;42.59;100579.53;6335094;22;20003;-89
2022/06/19 09:01:38;;;;;;;8.63;6.20;;;;;;;29.97;42.59;100584.41;6336184;22;20055;-94
2022/06/19 09:07:22;;;;;;;9.60;6.35;;;;;;;30.19;41.50;100591.72;6343573;22;20017;-90
2022/06/19 09:10:17;;;;;;;9.77;5.93;;;;;;;30.32;42.20;100584.66;6341897;22;19999;-91
2022/06/19 09:13:20;;;;;;;10.10;6.32;;;;;;;30.42;41.48;100579.59;6349076;22;20027;-90
2022/06/19 09:16:07;;;;;;;9.73;6.07;;;;;;;30.53;41.60;100584.00;6345808;22;20017;-89
2022/06/19 09:18:56;;;;;;;12.80;5.55;;;;;;;30.60;42.08;100584.03;6337955;22;19995;-90
2022/06/19 09:21:40;;;;;;;11.65;6.03;;;;;;;30.74;41.73;100580.56;6345774;22;20029;-90
2022/06/19 09:24:24;;;;;;;13.15;6.20;;;;;;;30.87;42.14;100569.94;6345544;22;20037;-91
2022/06/19 09:26:53;;;;;;;;;;;;;;;30.81;41.33;100560.44;6339942;22;20007;-89
2022/06/19 09:29:32;;;;;;;7.95;5.80;;;;;;;31.03;40.43;100562.06;6339662;22;20266;-89
2022/06/19 09:32:07;;;;;;;15.30;6.10;;;;;;;31.18;40.46;100560.16;6343597;22;20002;-89
2022/06/19 11:36:52;;;;;;;9.52;4.47;;;;;;;33.53;35.50;100476.22;6334449;22;20019;-92
2022/06/19 11:39:39;;;;;;;6.65;4.43;;;;;;;33.39;35.67;100481.91;6333609;22;20002;-90
2022/06/19 14:14:45;;;;;;;9.77;2.75;;;;;;;29.96;37.68;100671.19;6368158;22;20434;-91
2022/06/19 14:17:54;;;;;;;8.57;2.60;;;;;;;29.78;38.14;100654.47;6372163;22;20037;-93
2022/06/19 14:20:48;;;;;;;7.97;2.35;;;;;;;29.67;38.30;100654.38;6325692;22;20002;-94
2022/06/19 14:23:34;;;;;;;5.72;2.47;;;;;;;29.57;38.48;100662.56;6372480;22;20006;-91
2022/06/19 14:26:18;;;;;;;6.18;2.80;;;;;;;29.31;38.30;100653.19;6368041;22;19998;-91
2022/06/19 14:28:58;;;;;;;8.23;2.55;;;;;;;29.42;38.51;100661.56;6367502;22;20067;-91
2022/06/19 14:31:25;;;;;;;6.65;2.33;;;;;;;29.63;37.80;100653.56;6366642;22;20132;-92
2022/06/19 14:33:53;;;;;;;8.43;2.72;;;;;;;29.56;37.95;100659.00;6367299;22;19998;-92
2022/06/19 14:36:18;;;;;;;6.50;2.25;;;;;;;29.39;38.05;100660.38;6366751;22;20005;-89
2022/06/19 14:38:46;;;;;;;6.70;1.80;;;;;;;29.29;38.16;100660.28;6368934;22;19998;-92
2022/06/19 14:41:25;;;;;;;8.63;2.50;;;;;;;28.84;38.71;100660.06;6365721;22;20081;-91
2022/06/19 14:43:57;;;;;;;9.55;3.30;;;;;;;28.54;38.83;100671.06;6366134;22;20006;-91
2022/06/19 14:46:39;;;;;;;7.70;2.85;;;;;;;28.18;39.78;100638.59;6367754;22;20384;-91
2022/06/19 14:49:16;;;;;;;8.70;2.33;;;;;;;27.92;40.55;100659.44;6366314;22;20109;-90
2022/06/19 14:52:00;;;;;;;8.88;2.17;;;;;;;28.00;39.99;100685.94;6364667;22;20264;-90
2022/06/19 14:54:49;;;;;;;6.97;2.20;;;;;;;28.59;39.07;100695.56;6369514;22;20005;-90
2022/06/19 14:57:23;;;;;;;10.07;2.45;;;;;;;29.12;37.72;100706.56;6371970;22;19998;-90
2022/06/19 14:59:53;;;;;;;11.85;2.45;;;;;;;28.99;38.21;100702.47;6374226;22;20066;-92
2022/06/19 15:02:30;;;;;;;7.57;2.25;;;;;;;28.23;38.77;100704.44;6370281;22;20010;-92
2022/06/19 15:05:06;;;;;;;8.98;2.53;;;;;;;27.65;39.78;100710.88;6369157;22;20002;-92
2022/06/19 15:07:40;;;;;;;10.00;2.88;;;;;;;27.25;40.39;100716.72;6366999;22;20022;-89
2022/06/19 15:10:27;;;;;;;6.32;2.05;;;;;;;26.77;41.14;100729.81;6367807;22;20009;-91
2022/06/19 15:13:37;;;;;;;6.43;2.60;;;;;;;26.14;42.33;100740.00;6371069;22;20016;-89
2022/06/19 15:16:23;;;;;;;5.68;2.95;;;;;;;25.86;43.00;100745.56;6326739;22;20357;-87
2022/06/19 20:49:58;;;;;;;19.00;8.43;;;;;;;16.13;72.93;101238.22;6327442;22;20118;-89
2022/06/19 20:52:24;;;;;;;18.02;8.00;;;;;;;16.10;72.84;101268.50;6326759;22;20034;-89
2022/06/19 20:54:57;;;;;;;20.17;8.80;;;;;;;16.06;72.40;101267.44;6325924;22;19999;-88
2022/06/19 20:57:24;;;;;;;17.23;7.90;;;;;;;16.09;72.78;101242.56;6320212;22;20004;-89
2022/06/19 20:59:51;;;;;;;24.50;8.68;;;;;;;16.06;72.65;101267.44;6295597;22;20003;-88
2022/06/19 21:02:17;;;;;;;18.00;8.68;;;;;;;16.06;72.62;101270.13;6295993;22;20007;-87
2022/06/19 21:04:43;;;;;;;27.85;10.05;;;;;;;16.07;72.63;101244.72;6294661;22;20571;-88
2022/06/19 21:07:35;;;;;;;27.65;9.32;;;;;;;15.93;72.20;101220.94;6293949;22;20013;-89
2022/06/19 21:10:11;;;;;;;20.90;9.90;;;;;;;16.00;72.48;101207.97;6287323;22;20011;-88
2022/06/19 21:12:36;;;;;;;22.08;12.13;;;;;;;15.96;72.39;101200.66;6294888;22;20003;-87
2022/06/19 21:15:03;;;;;;;18.10;9.20;;;;;;;15.91;72.26;101204.19;6297411;22;19999;-86
2022/06/19 21:17:28;;;;;;;18.67;9.23;;;;;;;15.91;72.17;101220.41;6293646;22;20003;-90
2022/06/19 21:19:54;;;;;;;16.85;8.20;;;;;;;15.95;72.32;101236.88;6296252;22;20010;-89
2022/06/19 21:22:19;;;;;;;15.88;6.78;;;;;;;15.93;71.68;101249.84;6299838;22;20007;-89
2022/06/19 21:24:45;;;;;;;10.43;5.32;;;;;;;15.88;71.85;101226.34;6297572;22;20014;-87
2022/06/19 21:27:13;;;;;;;8.00;3.35;;;;;;;15.86;71.67;101228.53;6299358;22;20037;-88
2022/06/19 21:29:41;;;;;;;11.07;3.80;;;;;;;15.84;71.52;101246.91;6301268;22;20253;-88
2022/06/19 21:32:07;;;;;;;7.30;3.33;;;;;;;15.76;71.96;101250.13;6298049;22;20018;-88
2022/06/19 21:34:33;;;;;;;9.90;3.42;;;;;;;15.73;72.15;101233.66;6298424;22;20102;-88
2022/06/19 21:36:59;;;;;;;7.90;2.85;;;;;;;15.67;72.35;101230.97;6298633;22;20045;-87
2022/06/19 21:39:28;;;;;;;5.38;2.45;;;;;;;15.59;73.04;101227.97;6297655;22;20011;-88
2022/06/19 21:41:55;;;;;;;8.23;2.25;;;;;;;15.57;73.19;101263.31;6299271;22;20034;-88
2022/06/19 21:44:22;;;;;;;23.27;4.18;;;;;;;15.52;73.25;101254.41;6298443;22;20326;-88
2022/06/19 21:46:48;;;;;;;5.32;2.00;;;;;;;15.41;74.05;101253.59;6298533;22;20018;-89
2022/06/19 21:49:14;;;;;;;7.00;2.35;;;;;;;15.33;74.44;101246.03;6316456;22;20442;-88
2022/06/19 21:51:46;;;;;;;8.35;2.35;;;;;;;15.23;74.97;101252.19;6362871;22;20021;-87
2022/06/19 21:54:13;;;;;;;4.30;2.17;;;;;;;15.22;75.26;101255.16;6360943;22;20006;-88
2022/06/19 21:56:40;;;;;;;3.80;1.52;;;;;;;15.15;75.66;101239.25;6361403;22;20002;-86
2022/06/19 21:59:09;;;;;;;5.05;1.85;;;;;;;15.15;75.72;101235.72;6361006;22;20549;-87
2022/06/19 22:01:36;;;;;;;5.57;2.20;;;;;;;15.13;75.31;101262.97;6329802;22;20010;-88
2022/06/19 22:04:01;;;;;;;6.90;1.92;;;;;;;15.10;75.56;101234.66;6335735;22;20010;-88
2022/06/19 22:06:34;;;;;;;10.50;2.17;;;;;;;15.10;75.69;101229.25;6363878;22;20002;-88